createdAt,value
2023-03-16T00:00:11.316Z,90.84
2023-03-16T00:01:11.273Z,90.64
2023-03-16T00:02:11.390Z,90.64
2023-03-16T00:03:11.289Z,90.22
2023-03-16T00:04:11.267Z,89.34
2023-03-16T00:05:11.273Z,89.34
2023-03-16T00:06:11.253Z,89.34
2023-03-16T00:07:11.222Z,89.34
2023-03-16T00:08:11.226Z,89.34
2023-03-16T00:09:11.190Z,89.23
2023-03-16T00:10:11.204Z,89.55
2023-03-16T00:11:11.207Z,89.17
2023-03-16T00:12:11.187Z,89.23
2023-03-16T00:13:11.151Z,88.96
2023-03-16T00:14:11.172Z,89.17
2023-03-16T00:15:11.137Z,89.38
2023-03-16T00:16:11.216Z,88.96
2023-03-16T00:17:11.125Z,89.48
2023-03-16T00:18:11.127Z,89.90
2023-03-16T00:19:11.099Z,89.28
2023-03-16T00:20:11.108Z,89.17
2023-03-16T00:21:11.086Z,89.90
2023-03-16T00:22:11.096Z,90.53
2023-03-16T00:23:11.096Z,91.09
2023-03-16T00:24:11.077Z,91.20
2023-03-16T00:25:11.040Z,91.09
2023-03-16T00:26:11.076Z,92.08
2023-03-16T00:27:11.016Z,92.61
2023-03-16T00:28:11.021Z,92.61
2023-03-16T00:29:11.006Z,92.71
2023-03-16T00:30:11.005Z,92.82
2023-03-16T00:31:10.970Z,92.40
2023-03-16T00:32:10.987Z,93.34
2023-03-16T00:33:11.063Z,93.13
2023-03-16T00:34:10.960Z,92.40
2023-03-16T00:35:10.953Z,92.19
2023-03-16T00:36:10.982Z,91.66
2023-03-16T00:37:10.924Z,91.98
2023-03-16T00:38:10.915Z,92.29
2023-03-16T00:39:10.889Z,92.82
2023-03-16T00:40:10.900Z,92.82
2023-03-16T00:41:10.892Z,92.61
2023-03-16T00:42:10.875Z,92.08
2023-03-16T00:43:10.844Z,91.66
2023-03-16T00:44:10.854Z,92.19
2023-03-16T00:45:10.831Z,92.19
2023-03-16T00:46:10.898Z,92.08
2023-03-16T00:47:10.831Z,91.77
2023-03-16T00:48:10.814Z,92.08
2023-03-16T00:49:10.802Z,91.87
2023-03-16T00:50:10.770Z,91.77
2023-03-16T00:51:10.788Z,92.40
2023-03-16T00:52:10.750Z,92.29
2023-03-16T00:53:10.789Z,92.40
2023-03-16T00:54:10.733Z,91.87
2023-03-16T00:55:10.743Z,91.77
2023-03-16T00:56:10.724Z,91.98
2023-03-16T00:57:10.731Z,90.99
2023-03-16T00:58:10.691Z,90.99
2023-03-16T00:59:10.720Z,90.68
2023-03-16T01:00:10.672Z,89.90
2023-03-16T01:01:10.793Z,88.02
2023-03-16T01:02:10.661Z,87.25
2023-03-16T01:03:10.722Z,87.66
2023-03-16T01:04:10.630Z,87.88
2023-03-16T01:05:10.670Z,87.15
2023-03-16T01:06:10.614Z,86.69
2023-03-16T01:07:10.626Z,86.47
2023-03-16T01:08:10.597Z,86.69
2023-03-16T01:09:10.611Z,86.47
2023-03-16T01:10:10.577Z,87.10
2023-03-16T01:11:10.615Z,87.10
2023-03-16T01:12:10.561Z,86.69
2023-03-16T01:13:10.572Z,86.47
2023-03-16T01:14:10.538Z,86.27
2023-03-16T01:15:10.550Z,86.41
2023-03-16T01:16:10.518Z,86.93
2023-03-16T01:17:10.575Z,87.04
2023-03-16T01:18:10.494Z,87.92
2023-03-16T01:19:10.499Z,88.23
2023-03-16T01:20:10.478Z,88.65
2023-03-16T01:21:10.505Z,88.65
2023-03-16T01:22:10.456Z,88.69
2023-03-16T01:23:10.499Z,88.69
2023-03-16T01:24:10.428Z,89.00
2023-03-16T01:25:10.442Z,89.53
2023-03-16T01:26:10.408Z,89.73
2023-03-16T01:27:10.421Z,89.32
2023-03-16T01:28:10.389Z,90.16
2023-03-16T01:29:10.429Z,89.63
2023-03-16T01:30:10.366Z,89.73
2023-03-16T01:31:10.454Z,89.73
2023-03-16T01:32:10.353Z,89.95
2023-03-16T01:33:10.360Z,89.98
2023-03-16T01:34:10.332Z,90.51
2023-03-16T01:35:10.391Z,91.24
2023-03-16T01:36:10.320Z,91.50
2023-03-16T01:37:10.330Z,92.02
2023-03-16T01:38:10.289Z,92.02
2023-03-16T01:39:10.309Z,92.38
2023-03-16T01:40:10.284Z,92.90
2023-03-16T01:41:10.317Z,93.63
2023-03-16T01:42:10.250Z,94.06
2023-03-16T01:43:10.264Z,94.06
2023-03-16T01:44:10.231Z,93.95
2023-03-16T01:45:10.248Z,93.63
2023-03-16T01:46:10.230Z,93.63
2023-03-16T01:47:10.242Z,94.16
2023-03-16T01:48:10.189Z,93.53
2023-03-16T01:49:10.199Z,93.53
2023-03-16T01:50:10.168Z,93.95
2023-03-16T01:51:10.176Z,93.63
2023-03-16T01:52:10.174Z,93.11
2023-03-16T01:53:10.212Z,92.38
2023-03-16T01:54:10.132Z,92.06
2023-03-16T01:55:10.149Z,91.60
2023-03-16T01:56:10.106Z,91.33
2023-03-16T01:57:10.128Z,92.48
2023-03-16T01:58:10.092Z,92.69
2023-03-16T01:59:10.131Z,92.58
2023-03-16T02:00:10.084Z,92.38
2023-03-16T02:01:10.124Z,92.16
2023-03-16T02:02:10.056Z,91.71
2023-03-16T02:03:10.071Z,90.87
2023-03-16T02:04:10.151Z,90.55
2023-03-16T02:05:10.092Z,90.55
2023-03-16T02:06:10.004Z,90.76
2023-03-16T02:07:10.022Z,90.45
2023-03-16T02:08:09.988Z,90.55
2023-03-16T02:09:10.034Z,90.76
2023-03-16T02:10:09.971Z,91.12
2023-03-16T02:11:10.002Z,91.43
2023-03-16T02:12:09.960Z,91.43
2023-03-16T02:13:09.954Z,92.80
2023-03-16T02:14:09.924Z,93.11
2023-03-16T02:15:09.950Z,92.48
2023-03-16T02:16:09.920Z,93.11
2023-03-16T02:17:09.934Z,93.36
2023-03-16T02:18:09.881Z,93.78
2023-03-16T02:19:09.904Z,93.88
2023-03-16T02:20:09.900Z,93.78
2023-03-16T02:21:09.893Z,93.57
2023-03-16T02:22:09.862Z,93.57
2023-03-16T02:23:09.887Z,93.26
2023-03-16T02:24:09.821Z,93.05
2023-03-16T02:25:09.838Z,93.88
2023-03-16T02:26:09.804Z,94.37
2023-03-16T02:27:09.825Z,92.90
2023-03-16T02:28:09.782Z,90.49
2023-03-16T02:29:09.809Z,89.75
2023-03-16T02:30:09.794Z,88.04
2023-03-16T02:31:09.791Z,88.67
2023-03-16T02:32:09.743Z,87.68
2023-03-16T02:33:09.758Z,87.37
2023-03-16T02:34:09.728Z,88.48
2023-03-16T02:35:09.773Z,87.85
2023-03-16T02:36:09.741Z,85.34
2023-03-16T02:37:09.730Z,85.55
2023-03-16T02:38:09.681Z,85.19
2023-03-16T02:39:09.694Z,86.66
2023-03-16T02:40:09.674Z,85.30
2023-03-16T02:41:09.695Z,84.00
2023-03-16T02:42:09.644Z,82.75
2023-03-16T02:43:09.659Z,80.03
2023-03-16T02:44:09.630Z,79.68
2023-03-16T02:45:09.658Z,81.11
2023-03-16T02:46:09.658Z,80.48
2023-03-16T02:47:09.633Z,80.48
2023-03-16T02:48:09.580Z,77.45
2023-03-16T02:49:09.597Z,78.88
2023-03-16T02:50:09.566Z,80.24
2023-03-16T02:51:09.584Z,78.88
2023-03-16T02:52:09.540Z,80.02
2023-03-16T02:53:09.573Z,79.92
2023-03-16T02:54:09.520Z,78.04
2023-03-16T02:55:09.537Z,80.44
2023-03-16T02:56:09.561Z,81.18
2023-03-16T02:57:09.516Z,78.98
2023-03-16T02:58:09.493Z,77.94
2023-03-16T02:59:09.517Z,78.42
2023-03-16T03:00:09.476Z,78.11
2023-03-16T03:01:09.477Z,76.44
2023-03-16T03:02:11.230Z,75.60
2023-03-16T03:03:09.602Z,75.67
2023-03-16T03:04:09.436Z,75.88
2023-03-16T03:05:09.459Z,75.98
2023-03-16T03:06:09.398Z,74.84
2023-03-16T03:07:09.415Z,75.12
2023-03-16T03:08:09.379Z,74.18
2023-03-16T03:09:09.392Z,74.07
2023-03-16T03:10:09.372Z,74.38
2023-03-16T03:11:09.387Z,75.12
2023-03-16T03:12:09.348Z,74.38
2023-03-16T03:13:09.361Z,74.28
2023-03-16T03:14:09.326Z,73.97
2023-03-16T03:15:09.370Z,73.55
2023-03-16T03:16:09.334Z,74.70
2023-03-16T03:17:09.343Z,74.38
2023-03-16T03:18:09.278Z,74.49
2023-03-16T03:19:09.315Z,74.18
2023-03-16T03:20:09.266Z,75.95
2023-03-16T03:21:09.270Z,74.18
2023-03-16T03:22:09.249Z,75.22
2023-03-16T03:23:09.265Z,74.28
2023-03-16T03:24:09.217Z,76.16
2023-03-16T03:25:09.247Z,75.01
2023-03-16T03:26:09.212Z,75.01
2023-03-16T03:27:09.212Z,73.76
2023-03-16T03:28:09.248Z,73.41
2023-03-16T03:29:09.217Z,73.83
2023-03-16T03:30:09.159Z,72.89
2023-03-16T03:31:09.283Z,73.21
2023-03-16T03:32:09.138Z,73.83
2023-03-16T03:33:09.261Z,73.83
2023-03-16T03:34:09.114Z,73.41
2023-03-16T03:35:09.153Z,73.83
2023-03-16T03:36:09.143Z,74.25
2023-03-16T03:37:09.105Z,73.93
2023-03-16T03:38:09.078Z,73.49
2023-03-16T03:39:09.091Z,74.01
2023-03-16T03:40:09.051Z,73.27
2023-03-16T03:41:09.081Z,74.01
2023-03-16T03:42:09.038Z,74.32
2023-03-16T03:43:09.042Z,75.26
2023-03-16T03:44:09.015Z,74.84
2023-03-16T03:45:09.036Z,73.07
2023-03-16T03:46:09.099Z,73.27
2023-03-16T03:47:09.104Z,73.07
2023-03-16T03:48:08.972Z,73.27
2023-03-16T03:49:08.986Z,74.52
2023-03-16T03:50:08.958Z,73.69
2023-03-16T03:51:08.966Z,73.45
2023-03-16T03:52:08.941Z,73.45
2023-03-16T03:53:08.972Z,72.72
2023-03-16T03:54:08.915Z,71.99
2023-03-16T03:55:08.957Z,72.17
2023-03-16T03:56:08.903Z,72.38
2023-03-16T03:57:08.925Z,71.75
2023-03-16T03:58:08.877Z,72.89
2023-03-16T03:59:08.889Z,71.99
2023-03-16T04:00:08.870Z,72.38
2023-03-16T04:01:08.868Z,71.96
2023-03-16T04:02:08.927Z,73.00
2023-03-16T04:03:08.990Z,72.48
2023-03-16T04:04:08.844Z,72.48
2023-03-16T04:05:08.863Z,72.06
2023-03-16T04:06:08.837Z,71.54
2023-03-16T04:07:08.792Z,72.69
2023-03-16T04:08:08.794Z,73.42
2023-03-16T04:09:08.756Z,72.69
2023-03-16T04:10:08.765Z,73.52
2023-03-16T04:11:08.754Z,74.49
2023-03-16T04:12:08.756Z,74.18
2023-03-16T04:13:08.744Z,74.60
2023-03-16T04:14:08.744Z,74.60
2023-03-16T04:15:08.714Z,74.18
2023-03-16T04:16:08.710Z,73.45
2023-03-16T04:17:08.696Z,73.24
2023-03-16T04:18:08.690Z,75.12
2023-03-16T04:19:08.659Z,74.60
2023-03-16T04:20:08.668Z,72.79
2023-03-16T04:21:08.639Z,72.17
2023-03-16T04:22:08.643Z,71.86
2023-03-16T04:23:08.637Z,72.27
2023-03-16T04:24:08.644Z,70.50
2023-03-16T04:25:10.369Z,71.09
2023-03-16T04:26:08.602Z,71.20
2023-03-16T04:27:08.593Z,71.82
2023-03-16T04:28:08.583Z,71.41
2023-03-16T04:29:08.573Z,70.36
2023-03-16T04:30:08.567Z,72.00
2023-03-16T04:31:08.615Z,72.41
2023-03-16T04:32:08.586Z,69.84
2023-03-16T04:33:08.611Z,71.06
2023-03-16T04:34:08.517Z,71.27
2023-03-16T04:35:08.534Z,71.82
2023-03-16T04:36:08.538Z,70.15
2023-03-16T04:37:08.466Z,70.23
2023-03-16T04:38:08.482Z,71.17
2023-03-16T04:39:08.452Z,70.54
2023-03-16T04:40:10.772Z,70.12
2023-03-16T04:41:08.478Z,69.81
2023-03-16T04:42:08.438Z,69.92
2023-03-16T04:43:08.409Z,70.33
2023-03-16T04:44:08.417Z,72.20
2023-03-16T04:45:08.389Z,72.00
2023-03-16T04:46:08.490Z,72.03
2023-03-16T04:47:08.391Z,73.28
2023-03-16T04:48:08.373Z,73.28
2023-03-16T04:49:08.347Z,72.24
2023-03-16T04:50:08.350Z,73.28
2023-03-16T04:51:08.324Z,72.03
2023-03-16T04:52:08.336Z,72.86
2023-03-16T04:53:08.390Z,72.13
2023-03-16T04:54:08.322Z,71.51
2023-03-16T04:55:08.302Z,72.97
2023-03-16T04:56:08.312Z,75.36
2023-03-16T04:57:08.283Z,73.69
2023-03-16T04:58:08.305Z,72.34
2023-03-16T04:59:08.281Z,73.80
2023-03-16T05:00:08.259Z,73.28
2023-03-16T05:01:08.289Z,72.86
2023-03-16T05:02:08.241Z,72.13
2023-03-16T05:03:08.213Z,72.13
2023-03-16T05:04:08.222Z,70.85
2023-03-16T05:05:08.349Z,71.27
2023-03-16T05:06:08.170Z,72.00
2023-03-16T05:07:08.184Z,72.72
2023-03-16T05:08:08.145Z,72.72
2023-03-16T05:09:08.175Z,71.17
2023-03-16T05:10:08.143Z,72.10
2023-03-16T05:11:08.175Z,71.79
2023-03-16T05:12:08.126Z,73.03
2023-03-16T05:13:08.114Z,72.72
2023-03-16T05:14:08.099Z,71.27
2023-03-16T05:15:08.105Z,71.17
2023-03-16T05:16:08.204Z,71.69
2023-03-16T05:17:08.122Z,70.95
2023-03-16T05:18:08.045Z,71.48
2023-03-16T05:19:08.063Z,71.23
2023-03-16T05:20:08.043Z,70.40
2023-03-16T05:21:08.075Z,69.57
2023-03-16T05:22:08.023Z,70.20
2023-03-16T05:23:08.040Z,70.40
2023-03-16T05:24:07.985Z,69.23
2023-03-16T05:25:08.000Z,68.50
2023-03-16T05:26:07.970Z,68.91
2023-03-16T05:27:07.980Z,68.71
2023-03-16T05:28:07.959Z,68.29
2023-03-16T05:29:07.998Z,68.71
2023-03-16T05:30:07.927Z,68.29
2023-03-16T05:31:08.006Z,67.98
2023-03-16T05:32:07.901Z,67.43
2023-03-16T05:33:08.092Z,67.33
2023-03-16T05:34:07.880Z,67.12
2023-03-16T05:35:07.902Z,67.12
2023-03-16T05:36:07.960Z,67.12
2023-03-16T05:37:07.877Z,66.91
2023-03-16T05:38:07.841Z,66.71
2023-03-16T05:39:07.854Z,66.18
2023-03-16T05:40:07.815Z,66.28
2023-03-16T05:41:07.861Z,67.12
2023-03-16T05:42:07.799Z,66.50
2023-03-16T05:43:07.813Z,66.60
2023-03-16T05:44:07.776Z,66.60
2023-03-16T05:45:07.788Z,66.39
2023-03-16T05:46:07.819Z,66.50
2023-03-16T05:47:07.893Z,66.28
2023-03-16T05:48:07.735Z,66.28
2023-03-16T05:49:07.752Z,66.60
2023-03-16T05:50:07.716Z,66.28
2023-03-16T05:51:07.732Z,66.18
2023-03-16T05:52:07.706Z,67.43
2023-03-16T05:53:07.725Z,66.50
2023-03-16T05:54:07.678Z,66.39
2023-03-16T05:55:07.686Z,65.22
2023-03-16T05:56:07.652Z,64.80
2023-03-16T05:57:07.673Z,65.53
2023-03-16T05:58:07.635Z,65.63
2023-03-16T05:59:07.664Z,65.94
2023-03-16T06:00:07.611Z,65.84
2023-03-16T06:01:07.630Z,65.84
2023-03-16T06:02:07.588Z,65.01
2023-03-16T06:03:07.675Z,65.32
2023-03-16T06:04:07.730Z,65.22
2023-03-16T06:05:07.606Z,65.22
2023-03-16T06:06:07.555Z,64.80
2023-03-16T06:07:07.560Z,64.39
2023-03-16T06:08:07.529Z,64.39
2023-03-16T06:09:07.541Z,63.11
2023-03-16T06:10:07.508Z,64.04
2023-03-16T06:11:07.568Z,64.04
2023-03-16T06:12:07.485Z,63.21
2023-03-16T06:13:07.499Z,63.42
2023-03-16T06:14:07.470Z,63.42
2023-03-16T06:15:07.486Z,63.42
2023-03-16T06:16:07.528Z,63.11
2023-03-16T06:17:07.482Z,62.90
2023-03-16T06:18:07.424Z,64.15
2023-03-16T06:19:07.440Z,64.15
2023-03-16T06:20:07.408Z,62.28
2023-03-16T06:21:07.414Z,62.88
2023-03-16T06:22:07.477Z,63.60
2023-03-16T06:23:07.420Z,63.19
2023-03-16T06:24:07.367Z,63.29
2023-03-16T06:25:07.372Z,63.71
2023-03-16T06:26:07.344Z,63.92
2023-03-16T06:27:07.364Z,64.33
2023-03-16T06:28:07.322Z,64.02
2023-03-16T06:29:07.353Z,63.09
2023-03-16T06:30:07.298Z,62.88
2023-03-16T06:31:07.382Z,63.29
2023-03-16T06:32:07.282Z,62.46
2023-03-16T06:33:07.396Z,63.50
2023-03-16T06:34:07.260Z,62.88
2023-03-16T06:35:07.301Z,63.60
2023-03-16T06:36:07.309Z,62.67
2023-03-16T06:37:07.255Z,63.60
2023-03-16T06:38:07.229Z,63.09
2023-03-16T06:39:07.230Z,62.88
2023-03-16T06:40:07.204Z,63.40
2023-03-16T06:41:07.233Z,63.81
2023-03-16T06:42:07.192Z,62.77
2023-03-16T06:43:07.196Z,62.98
2023-03-16T06:44:07.159Z,63.37
2023-03-16T06:45:07.167Z,63.16
2023-03-16T06:46:07.240Z,65.03
2023-03-16T06:47:07.220Z,64.75
2023-03-16T06:48:07.120Z,64.51
2023-03-16T06:49:07.132Z,62.43
2023-03-16T06:50:07.093Z,65.03
2023-03-16T06:51:07.110Z,65.23
2023-03-16T06:52:07.080Z,62.74
2023-03-16T06:53:07.113Z,63.06
2023-03-16T06:54:07.063Z,63.78
2023-03-16T06:55:07.071Z,63.47
2023-03-16T06:56:07.035Z,64.51
2023-03-16T06:57:07.048Z,64.30
2023-03-16T06:58:07.018Z,63.89
2023-03-16T06:59:07.036Z,63.13
2023-03-16T07:00:07.042Z,62.51
2023-03-16T07:01:07.063Z,61.57
2023-03-16T07:02:06.975Z,61.88
2023-03-16T07:03:06.992Z,62.61
2023-03-16T07:04:06.996Z,65.17
2023-03-16T07:05:06.989Z,64.76
2023-03-16T07:06:06.929Z,63.41
2023-03-16T07:07:06.942Z,63.93
2023-03-16T07:08:06.963Z,63.07
2023-03-16T07:09:06.917Z,62.45
2023-03-16T07:10:06.893Z,62.97
2023-03-16T07:11:06.911Z,62.14
2023-03-16T07:12:06.865Z,61.72
2023-03-16T07:13:06.879Z,60.79
2023-03-16T07:14:06.848Z,59.73
2023-03-16T07:15:06.858Z,59.73
2023-03-16T07:16:06.955Z,59.73
2023-03-16T07:17:06.860Z,61.07
2023-03-16T07:18:06.801Z,60.22
2023-03-16T07:19:06.816Z,60.63
2023-03-16T07:20:06.780Z,61.05
2023-03-16T07:21:06.805Z,59.19
2023-03-16T07:22:06.757Z,59.19
2023-03-16T07:23:06.793Z,58.33
2023-03-16T07:24:06.739Z,60.09
2023-03-16T07:25:06.750Z,59.47
2023-03-16T07:26:06.718Z,58.92
2023-03-16T07:27:06.728Z,58.30
2023-03-16T07:28:06.711Z,57.89
2023-03-16T07:29:06.735Z,58.09
2023-03-16T07:30:06.684Z,59.52
2023-03-16T07:31:06.691Z,58.17
2023-03-16T07:32:06.710Z,57.65
2023-03-16T07:33:06.794Z,56.39
2023-03-16T07:34:06.644Z,58.15
2023-03-16T07:35:06.705Z,58.01
2023-03-16T07:36:06.698Z,57.81
2023-03-16T07:37:06.626Z,55.85
2023-03-16T07:38:06.588Z,56.49
2023-03-16T07:39:06.608Z,56.67
2023-03-16T07:40:06.567Z,56.29
2023-03-16T07:41:06.607Z,57.42
2023-03-16T07:42:06.555Z,55.98
2023-03-16T07:43:06.564Z,57.94
2023-03-16T07:44:06.526Z,57.21
2023-03-16T07:45:06.538Z,57.24
2023-03-16T07:46:06.597Z,58.17
2023-03-16T07:47:06.530Z,58.59
2023-03-16T07:48:06.485Z,57.76
2023-03-16T07:49:06.494Z,57.14
2023-03-16T07:50:06.462Z,58.28
2023-03-16T07:51:06.478Z,58.48
2023-03-16T07:52:06.446Z,57.14
2023-03-16T07:53:06.488Z,58.04
2023-03-16T07:54:06.417Z,58.35
2023-03-16T07:55:06.442Z,57.01
2023-03-16T07:56:06.400Z,59.08
2023-03-16T07:57:06.421Z,57.73
2023-03-16T07:58:06.374Z,55.98
2023-03-16T07:59:06.433Z,57.32
2023-03-16T08:00:06.356Z,57.11
2023-03-16T08:01:06.381Z,57.63
2023-03-16T08:02:06.505Z,57.29
2023-03-16T08:03:06.363Z,57.29
2023-03-16T08:04:06.359Z,56.57
2023-03-16T08:05:06.421Z,56.77
2023-03-16T08:06:06.296Z,56.75
2023-03-16T08:07:06.317Z,56.85
2023-03-16T08:08:06.272Z,56.13
2023-03-16T08:09:06.380Z,56.49
2023-03-16T08:10:06.254Z,55.36
2023-03-16T08:11:06.579Z,55.85
2023-03-16T08:12:06.249Z,56.36
2023-03-16T08:13:06.281Z,55.51
2023-03-16T08:14:06.207Z,54.79
2023-03-16T08:15:06.252Z,53.78
2023-03-16T08:16:06.242Z,54.92
2023-03-16T08:17:06.480Z,55.02
2023-03-16T08:18:06.169Z,55.05
2023-03-16T08:19:06.188Z,56.08
2023-03-16T08:20:06.147Z,55.36
2023-03-16T08:21:06.161Z,56.10
2023-03-16T08:22:06.133Z,55.69
2023-03-16T08:23:06.150Z,55.80
2023-03-16T08:24:06.105Z,55.80
2023-03-16T08:25:06.115Z,56.62
2023-03-16T08:26:06.079Z,56.31
2023-03-16T08:27:06.109Z,56.41
2023-03-16T08:28:06.068Z,56.83
2023-03-16T08:29:06.175Z,57.32
2023-03-16T08:30:06.054Z,56.90
2023-03-16T08:31:06.096Z,55.57
2023-03-16T08:32:06.022Z,54.94
2023-03-16T08:33:06.088Z,55.66
2023-03-16T08:34:05.997Z,57.01
2023-03-16T08:35:06.044Z,55.64
2023-03-16T08:36:06.070Z,55.23
2023-03-16T08:37:05.994Z,56.13
2023-03-16T08:38:05.960Z,54.38
2023-03-16T08:39:07.745Z,54.56
2023-03-16T08:40:05.934Z,54.85
2023-03-16T08:41:05.962Z,54.79
2023-03-16T08:42:05.935Z,53.05
2023-03-16T08:43:05.925Z,52.81
2023-03-16T08:44:05.898Z,51.95
2023-03-16T08:45:05.905Z,50.79
2023-03-16T08:46:05.986Z,49.87
2023-03-16T08:47:05.929Z,49.26
2023-03-16T08:48:05.867Z,51.41
2023-03-16T08:49:05.863Z,49.69
2023-03-16T08:50:05.835Z,51.53
2023-03-16T08:51:05.856Z,50.12
2023-03-16T08:52:05.805Z,50.99
2023-03-16T08:53:05.851Z,51.53
2023-03-16T08:54:05.792Z,51.42
2023-03-16T08:55:05.892Z,50.93
2023-03-16T08:56:05.762Z,52.27
2023-03-16T08:57:05.781Z,51.86
2023-03-16T08:58:05.753Z,50.60
2023-03-16T08:59:05.783Z,51.73
2023-03-16T09:00:05.720Z,51.40
2023-03-16T09:01:05.743Z,50.27
2023-03-16T09:02:05.760Z,52.20
2023-03-16T09:03:05.710Z,49.81
2023-03-16T09:04:05.788Z,50.94
2023-03-16T09:05:05.704Z,50.43
2023-03-16T09:06:05.656Z,52.59
2023-03-16T09:07:09.233Z,51.25
2023-03-16T09:08:05.633Z,50.24
2023-03-16T09:09:05.646Z,50.14
2023-03-16T09:10:05.624Z,51.48
2023-03-16T09:11:05.666Z,50.56
2023-03-16T09:12:05.592Z,51.17
2023-03-16T09:13:05.602Z,50.27
2023-03-16T09:14:05.586Z,53.23
2023-03-16T09:15:05.598Z,53.23
2023-03-16T09:16:05.588Z,51.68
2023-03-16T09:17:05.604Z,53.23
2023-03-16T09:18:05.547Z,52.92
2023-03-16T09:19:05.551Z,53.02
2023-03-16T09:20:21.179Z,51.89
2023-03-16T09:21:05.502Z,52.40
2023-03-16T09:22:05.513Z,51.99
2023-03-16T09:23:05.499Z,51.58
2023-03-16T09:24:05.492Z,52.61
2023-03-16T09:25:05.452Z,51.61
2023-03-16T09:26:05.468Z,52.33
2023-03-16T09:27:05.514Z,50.99
2023-03-16T09:28:05.441Z,51.20
2023-03-16T09:29:05.433Z,51.30
2023-03-16T09:30:05.448Z,52.22
2023-03-16T09:31:05.436Z,51.50
2023-03-16T09:32:05.404Z,51.81
2023-03-16T09:33:05.454Z,50.66
2023-03-16T09:34:05.392Z,51.28
2023-03-16T09:35:05.386Z,52.09
2023-03-16T09:36:05.417Z,51.17
2023-03-16T09:37:05.327Z,52.30
2023-03-16T09:38:06.491Z,51.58
2023-03-16T09:39:05.312Z,50.45
2023-03-16T09:40:10.326Z,51.28
2023-03-16T09:41:05.303Z,51.20
2023-03-16T09:42:05.301Z,51.50
2023-03-16T09:43:05.264Z,52.73
2023-03-16T09:44:05.276Z,52.43
2023-03-16T09:45:05.252Z,50.99
2023-03-16T09:46:05.324Z,52.43
2023-03-16T09:47:05.242Z,51.20
2023-03-16T09:48:05.236Z,50.70
2023-03-16T09:49:05.240Z,51.12
2023-03-16T09:50:05.334Z,51.12
2023-03-16T09:51:05.318Z,52.25
2023-03-16T09:52:05.198Z,52.14
2023-03-16T09:53:05.179Z,52.56
2023-03-16T09:54:05.182Z,53.25
2023-03-16T09:55:05.147Z,51.81
2023-03-16T09:56:05.151Z,52.53
2023-03-16T09:57:05.163Z,54.28
2023-03-16T09:58:05.140Z,53.07
2023-03-16T09:59:06.576Z,53.05
2023-03-16T10:00:05.106Z,52.25
2023-03-16T10:01:05.158Z,53.28
2023-03-16T10:02:05.087Z,52.14
2023-03-16T10:03:05.053Z,53.07
2023-03-16T10:04:05.183Z,52.86
2023-03-16T10:05:05.059Z,52.76
2023-03-16T10:06:05.050Z,53.48
2023-03-16T10:07:05.019Z,53.38
2023-03-16T10:08:05.018Z,53.25
2023-03-16T10:09:04.992Z,53.25
2023-03-16T10:10:05.009Z,53.66
2023-03-16T10:11:05.007Z,52.43
2023-03-16T10:12:04.974Z,51.81
2023-03-16T10:13:04.945Z,52.01
2023-03-16T10:14:04.956Z,52.53
2023-03-16T10:15:05.011Z,50.99
2023-03-16T10:16:05.017Z,51.09
2023-03-16T10:17:04.921Z,51.50
2023-03-16T10:18:04.915Z,54.07
2023-03-16T10:19:04.885Z,53.25
2023-03-16T10:20:04.897Z,52.61
2023-03-16T10:21:04.857Z,52.01
2023-03-16T10:22:04.890Z,52.12
2023-03-16T10:23:04.858Z,51.68
2023-03-16T10:24:04.848Z,51.81
2023-03-16T10:25:04.869Z,52.40
2023-03-16T10:26:04.830Z,51.79
2023-03-16T10:27:04.888Z,51.81
2023-03-16T10:28:04.808Z,51.50
2023-03-16T10:29:04.796Z,50.58
2023-03-16T10:30:04.791Z,52.33
2023-03-16T10:31:04.760Z,52.94
2023-03-16T10:32:04.817Z,50.78
2023-03-16T10:33:04.786Z,51.01
2023-03-16T10:34:04.740Z,51.81
2023-03-16T10:35:04.810Z,51.92
2023-03-16T10:36:04.721Z,51.30
2023-03-16T10:37:04.687Z,51.20
2023-03-16T10:38:04.720Z,50.99
2023-03-16T10:39:04.665Z,52.43
2023-03-16T10:40:04.769Z,50.48
2023-03-16T10:41:04.684Z,51.50
2023-03-16T10:42:04.656Z,50.89
2023-03-16T10:43:04.621Z,49.65
2023-03-16T10:44:04.638Z,50.89
2023-03-16T10:45:04.613Z,50.89
2023-03-16T10:46:04.659Z,51.50
2023-03-16T10:47:04.730Z,51.20
2023-03-16T10:48:04.595Z,49.94
2023-03-16T10:49:04.563Z,50.35
2023-03-16T10:50:04.576Z,49.84
2023-03-16T10:51:04.548Z,49.22
2023-03-16T10:52:04.555Z,52.61
2023-03-16T10:53:04.555Z,50.84
2023-03-16T10:54:04.539Z,49.79
2023-03-16T10:55:04.509Z,50.82
2023-03-16T10:56:04.520Z,49.69
2023-03-16T10:57:04.478Z,48.89
2023-03-16T10:58:04.505Z,50.02
2023-03-16T10:59:04.483Z,49.51
2023-03-16T11:00:04.470Z,48.58
2023-03-16T11:01:04.577Z,48.91
2023-03-16T11:02:04.457Z,50.22
2023-03-16T11:03:04.419Z,49.81
2023-03-16T11:04:04.444Z,49.19
2023-03-16T11:05:04.423Z,50.53
2023-03-16T11:06:04.435Z,48.27
2023-03-16T11:07:04.374Z,48.58
2023-03-16T11:08:04.395Z,49.51
2023-03-16T11:09:04.366Z,50.53
2023-03-16T11:10:04.368Z,48.99
2023-03-16T11:11:04.365Z,51.33
2023-03-16T11:12:04.367Z,50.61
2023-03-16T11:13:04.329Z,50.92
2023-03-16T11:14:04.324Z,49.69
2023-03-16T11:15:07.498Z,50.82
2023-03-16T11:16:04.307Z,50.22
2023-03-16T11:17:04.450Z,49.19
2023-03-16T11:18:04.288Z,51.66
2023-03-16T11:19:04.252Z,51.76
2023-03-16T11:20:04.275Z,50.40
2023-03-16T11:21:04.228Z,49.81
2023-03-16T11:22:04.245Z,49.51
2023-03-16T11:23:04.228Z,49.60
2023-03-16T11:24:04.221Z,49.99
2023-03-16T11:25:04.208Z,50.82
2023-03-16T11:26:04.231Z,50.59
2023-03-16T11:27:04.169Z,49.77
2023-03-16T11:28:04.193Z,50.05
2023-03-16T11:29:04.162Z,48.51
2023-03-16T11:30:04.159Z,49.33
2023-03-16T11:31:04.176Z,48.21
2023-03-16T11:32:04.135Z,51.10
2023-03-16T11:33:04.203Z,49.43
2023-03-16T11:34:04.129Z,49.15
2023-03-16T11:35:04.126Z,49.77
2023-03-16T11:36:04.150Z,47.30
2023-03-16T11:37:04.062Z,48.94
2023-03-16T11:38:04.075Z,51.39
2023-03-16T11:39:04.044Z,48.10
2023-03-16T11:40:04.058Z,48.10
2023-03-16T11:41:04.038Z,49.43
2023-03-16T11:42:04.037Z,47.88
2023-03-16T11:43:03.999Z,48.39
2023-03-16T11:44:04.009Z,47.97
2023-03-16T11:45:03.977Z,48.49
2023-03-16T11:46:04.011Z,47.97
2023-03-16T11:47:03.975Z,47.26
2023-03-16T11:48:03.966Z,47.59
2023-03-16T11:49:03.932Z,46.87
2023-03-16T11:50:03.950Z,47.89
2023-03-16T11:51:03.919Z,48.33
2023-03-16T11:52:03.929Z,48.33
2023-03-16T11:53:03.916Z,48.82
2023-03-16T11:54:03.903Z,47.71
2023-03-16T11:55:03.869Z,47.30
2023-03-16T11:56:03.892Z,48.25
2023-03-16T11:57:03.860Z,48.35
2023-03-16T11:58:03.868Z,49.17
2023-03-16T11:59:03.846Z,50.71
2023-03-16T12:00:03.840Z,50.69
2023-03-16T12:01:03.810Z,49.17
2023-03-16T12:02:03.864Z,50.07
2023-03-16T12:03:03.799Z,51.10
2023-03-16T12:04:03.824Z,49.54
2023-03-16T12:05:03.781Z,50.05
2023-03-16T12:06:16.941Z,49.64
2023-03-16T12:07:03.751Z,49.95
2023-03-16T12:08:03.743Z,48.13
2023-03-16T12:09:03.717Z,49.77
2023-03-16T12:10:03.736Z,48.84
2023-03-16T12:11:03.719Z,47.81
2023-03-16T12:12:03.704Z,49.87
2023-03-16T12:13:03.677Z,49.05
2023-03-16T12:14:03.684Z,51.92
2023-03-16T12:15:03.656Z,50.48
2023-03-16T12:16:03.684Z,50.36
2023-03-16T12:17:03.716Z,51.90
2023-03-16T12:18:03.640Z,49.23
2023-03-16T12:19:03.600Z,51.90
2023-03-16T12:20:03.617Z,51.07
2023-03-16T12:21:03.588Z,50.36
2023-03-16T12:22:03.613Z,51.28
2023-03-16T12:23:03.587Z,51.18
2023-03-16T12:24:03.570Z,52.51
2023-03-16T12:25:03.541Z,52.20
2023-03-16T12:26:03.639Z,52.74
2023-03-16T12:27:03.528Z,53.25
2023-03-16T12:28:03.565Z,52.95
2023-03-16T12:29:03.515Z,54.08
2023-03-16T12:30:03.535Z,54.08
2023-03-16T12:31:03.567Z,54.18
2023-03-16T12:32:03.494Z,53.36
2023-03-16T12:33:03.557Z,55.59
2023-03-16T12:34:03.464Z,54.25
2023-03-16T12:35:03.469Z,54.13
2023-03-16T12:36:03.479Z,54.21
2023-03-16T12:37:03.427Z,53.69
2023-03-16T12:38:03.435Z,51.21
2023-03-16T12:39:03.389Z,53.75
2023-03-16T12:40:03.402Z,52.57
2023-03-16T12:41:03.382Z,50.30
2023-03-16T12:42:03.376Z,49.35
2023-03-16T12:43:03.357Z,49.74
2023-03-16T12:44:03.399Z,49.74
2023-03-16T12:45:03.335Z,48.72
2023-03-16T12:46:03.420Z,48.82
2023-03-16T12:47:03.331Z,49.22
2023-03-16T12:48:03.313Z,49.15
2023-03-16T12:49:03.296Z,49.35
2023-03-16T12:50:03.291Z,49.76
2023-03-16T12:51:03.263Z,50.17
2023-03-16T12:52:03.277Z,49.76